Astroworld, Texas
Current Conditions -  °F | °C
As of 9:35 AM on Friday 19 Dec 2014 (Local Time) from KMCJ Reporting Station
Overcast Overcast  
Wind Chill: 59°   Ceiling: 200
Heat Index: 59°   Visibility: NA
Dew Point: 59°   Wind: 9mph
Humidity: 100%   Direction: 360°N
Pressure: 30.02"   Gusts: NA
Location:  29.6867°N, 95.4345°W
Report Text: KMCJ 191535Z AUTO 36008KT OVC002 15/15 A3002 RMK AO1
Loading
Personal Weather Stations






























Interactive Weather Map New forecast layout! Learn more

10-Day Weather Forecast

Advertisements
Track Severe Weather on mobile